sensor_id;sensor_type;location;lat;lon;timestamp;P1;durP1;ratioP1;P2;durP2;ratioP2
65572;SDS011;52214;50.940;13.996;2022-08-19T00:01:47;14.03;;;11.13;;
65572;SDS011;52214;50.940;13.996;2022-08-19T00:04:14;17.08;;;11.43;;
65572;SDS011;52214;50.940;13.996;2022-08-19T00:06:43;14.55;;;10.45;;
65572;SDS011;52214;50.940;13.996;2022-08-19T00:09:12;15.32;;;10.95;;
65572;SDS011;52214;50.940;13.996;2022-08-19T00:11:40;15.07;;;10.55;;
65572;SDS011;52214;50.940;13.996;2022-08-19T00:14:06;15.57;;;10.80;;
65572;SDS011;52214;50.940;13.996;2022-08-19T00:16:35;13.85;;;10.18;;
65572;SDS011;52214;50.940;13.996;2022-08-19T00:19:04;15.75;;;11.30;;
65572;SDS011;52214;50.940;13.996;2022-08-19T00:21:30;14.25;;;10.65;;
65572;SDS011;52214;50.940;13.996;2022-08-19T00:23:56;16.63;;;10.63;;
65572;SDS011;52214;50.940;13.996;2022-08-19T00:26:26;14.10;;;10.65;;
65572;SDS011;52214;50.940;13.996;2022-08-19T00:28:52;15.95;;;10.30;;
65572;SDS011;52214;50.940;13.996;2022-08-19T00:31:17;16.07;;;10.33;;
65572;SDS011;52214;50.940;13.996;2022-08-19T00:33:43;13.90;;;10.57;;
65572;SDS011;52214;50.940;13.996;2022-08-19T00:36:09;15.73;;;10.90;;
65572;SDS011;52214;50.940;13.996;2022-08-19T00:38:36;16.92;;;11.63;;
65572;SDS011;52214;50.940;13.996;2022-08-19T00:41:03;16.13;;;11.75;;
65572;SDS011;52214;50.940;13.996;2022-08-19T00:43:31;15.85;;;11.50;;
65572;SDS011;52214;50.940;13.996;2022-08-19T00:45:57;15.67;;;11.10;;
65572;SDS011;52214;50.940;13.996;2022-08-19T00:48:23;16.27;;;11.68;;
65572;SDS011;52214;50.940;13.996;2022-08-19T00:50:49;18.37;;;12.73;;
65572;SDS011;52214;50.940;13.996;2022-08-19T00:53:19;17.83;;;12.18;;
65572;SDS011;52214;50.940;13.996;2022-08-19T00:55:48;19.92;;;13.60;;
65572;SDS011;52214;50.940;13.996;2022-08-19T00:58:16;19.23;;;13.85;;
65572;SDS011;52214;50.940;13.996;2022-08-19T01:00:45;19.03;;;13.63;;
65572;SDS011;52214;50.940;13.996;2022-08-19T01:03:13;18.80;;;12.75;;
65572;SDS011;52214;50.940;13.996;2022-08-19T01:05:43;17.83;;;12.82;;
65572;SDS011;52214;50.940;13.996;2022-08-19T01:08:10;19.80;;;13.07;;
65572;SDS011;52214;50.940;13.996;2022-08-19T01:10:55;20.73;;;14.25;;
65572;SDS011;52214;50.940;13.996;2022-08-19T01:13:23;20.50;;;14.50;;
65572;SDS011;52214;50.940;13.996;2022-08-19T01:16:00;22.48;;;14.48;;
65572;SDS011;52214;50.940;13.996;2022-08-19T01:18:29;18.55;;;12.13;;
65572;SDS011;52214;50.940;13.996;2022-08-19T01:20:58;21.52;;;14.50;;
65572;SDS011;52214;50.940;13.996;2022-08-19T01:23:27;19.95;;;15.10;;
65572;SDS011;52214;50.940;13.996;2022-08-19T01:26:12;20.63;;;13.53;;
65572;SDS011;52214;50.940;13.996;2022-08-19T01:28:43;22.42;;;14.13;;
65572;SDS011;52214;50.940;13.996;2022-08-19T01:31:12;19.92;;;14.73;;
65572;SDS011;52214;50.940;13.996;2022-08-19T01:33:40;19.40;;;13.48;;
65572;SDS011;52214;50.940;13.996;2022-08-19T01:38:37;19.73;;;14.27;;
65572;SDS011;52214;50.940;13.996;2022-08-19T01:41:04;22.48;;;14.52;;
65572;SDS011;52214;50.940;13.996;2022-08-19T01:43:31;21.23;;;14.63;;
65572;SDS011;52214;50.940;13.996;2022-08-19T01:45:57;22.92;;;15.38;;
65572;SDS011;52214;50.940;13.996;2022-08-19T01:48:23;22.02;;;14.23;;
65572;SDS011;52214;50.940;13.996;2022-08-19T01:50:48;24.67;;;14.70;;
65572;SDS011;52214;50.940;13.996;2022-08-19T01:53:14;19.80;;;14.35;;
65572;SDS011;52214;50.940;13.996;2022-08-19T01:55:41;22.63;;;14.63;;
65572;SDS011;52214;50.940;13.996;2022-08-19T01:58:11;20.17;;;14.55;;
65572;SDS011;52214;50.940;13.996;2022-08-19T02:00:40;21.95;;;14.10;;
65572;SDS011;52214;50.940;13.996;2022-08-19T02:03:08;21.95;;;14.65;;
65572;SDS011;52214;50.940;13.996;2022-08-19T02:05:34;20.30;;;14.57;;
65572;SDS011;52214;50.940;13.996;2022-08-19T02:07:59;21.63;;;15.15;;
65572;SDS011;52214;50.940;13.996;2022-08-19T02:10:25;23.47;;;16.10;;
65572;SDS011;52214;50.940;13.996;2022-08-19T02:12:51;19.45;;;14.13;;
65572;SDS011;52214;50.940;13.996;2022-08-19T02:15:18;20.07;;;14.03;;
65572;SDS011;52214;50.940;13.996;2022-08-19T02:17:45;21.38;;;14.45;;
65572;SDS011;52214;50.940;13.996;2022-08-19T02:20:11;19.77;;;14.30;;
65572;SDS011;52214;50.940;13.996;2022-08-19T02:22:38;22.30;;;15.15;;
65572;SDS011;52214;50.940;13.996;2022-08-19T02:25:06;22.37;;;15.37;;
65572;SDS011;52214;50.940;13.996;2022-08-19T02:27:32;21.33;;;15.18;;
65572;SDS011;52214;50.940;13.996;2022-08-19T02:29:58;21.13;;;15.05;;
65572;SDS011;52214;50.940;13.996;2022-08-19T02:32:24;19.90;;;14.27;;
65572;SDS011;52214;50.940;13.996;2022-08-19T02:34:50;21.63;;;15.57;;
65572;SDS011;52214;50.940;13.996;2022-08-19T02:37:15;23.00;;;15.03;;
65572;SDS011;52214;50.940;13.996;2022-08-19T02:39:59;18.77;;;14.70;;
65572;SDS011;52214;50.940;13.996;2022-08-19T02:42:25;24.40;;;14.70;;
65572;SDS011;52214;50.940;13.996;2022-08-19T02:44:50;23.37;;;16.40;;
65572;SDS011;52214;50.940;13.996;2022-08-19T02:47:17;20.38;;;14.32;;
65572;SDS011;52214;50.940;13.996;2022-08-19T02:49:44;22.33;;;16.37;;
65572;SDS011;52214;50.940;13.996;2022-08-19T02:52:10;21.98;;;15.48;;
65572;SDS011;52214;50.940;13.996;2022-08-19T02:54:36;19.52;;;14.65;;
65572;SDS011;52214;50.940;13.996;2022-08-19T02:57:03;22.42;;;15.95;;
65572;SDS011;52214;50.940;13.996;2022-08-19T02:59:30;21.87;;;15.90;;
65572;SDS011;52214;50.940;13.996;2022-08-19T03:01:57;23.98;;;16.80;;
65572;SDS011;52214;50.940;13.996;2022-08-19T03:04:22;23.92;;;16.23;;
65572;SDS011;52214;50.940;13.996;2022-08-19T03:06:49;21.37;;;15.90;;
65572;SDS011;52214;50.940;13.996;2022-08-19T03:09:16;21.40;;;15.90;;
65572;SDS011;52214;50.940;13.996;2022-08-19T03:11:43;23.17;;;17.00;;
65572;SDS011;52214;50.940;13.996;2022-08-19T03:14:09;26.35;;;16.85;;
65572;SDS011;52214;50.940;13.996;2022-08-19T03:16:44;21.87;;;15.47;;
65572;SDS011;52214;50.940;13.996;2022-08-19T03:19:12;21.58;;;15.45;;
65572;SDS011;52214;50.940;13.996;2022-08-19T03:21:38;22.55;;;17.20;;
65572;SDS011;52214;50.940;13.996;2022-08-19T03:24:06;22.38;;;15.75;;
65572;SDS011;52214;50.940;13.996;2022-08-19T03:26:34;24.80;;;16.85;;
65572;SDS011;52214;50.940;13.996;2022-08-19T03:29:04;24.97;;;17.37;;
65572;SDS011;52214;50.940;13.996;2022-08-19T03:31:29;22.63;;;16.33;;
65572;SDS011;52214;50.940;13.996;2022-08-19T03:33:56;22.08;;;15.77;;
65572;SDS011;52214;50.940;13.996;2022-08-19T03:36:23;24.38;;;17.90;;
65572;SDS011;52214;50.940;13.996;2022-08-19T03:38:51;24.25;;;17.40;;
65572;SDS011;52214;50.940;13.996;2022-08-19T03:41:21;24.33;;;16.50;;
65572;SDS011;52214;50.940;13.996;2022-08-19T03:43:49;24.40;;;16.65;;
65572;SDS011;52214;50.940;13.996;2022-08-19T03:46:17;23.40;;;17.27;;
65572;SDS011;52214;50.940;13.996;2022-08-19T03:48:49;22.60;;;17.58;;
65572;SDS011;52214;50.940;13.996;2022-08-19T03:51:26;25.38;;;17.08;;
65572;SDS011;52214;50.940;13.996;2022-08-19T03:53:56;24.30;;;18.13;;
65572;SDS011;52214;50.940;13.996;2022-08-19T03:56:23;26.45;;;18.08;;
65572;SDS011;52214;50.940;13.996;2022-08-19T03:58:51;25.15;;;17.58;;
65572;SDS011;52214;50.940;13.996;2022-08-19T04:01:19;26.17;;;18.90;;
65572;SDS011;52214;50.940;13.996;2022-08-19T04:03:47;24.40;;;18.45;;
65572;SDS011;52214;50.940;13.996;2022-08-19T04:06:18;28.27;;;18.97;;
65572;SDS011;52214;50.940;13.996;2022-08-19T04:08:49;26.58;;;18.70;;
65572;SDS011;52214;50.940;13.996;2022-08-19T04:11:20;25.73;;;18.73;;
65572;SDS011;52214;50.940;13.996;2022-08-19T04:13:48;28.00;;;19.42;;
65572;SDS011;52214;50.940;13.996;2022-08-19T04:16:16;27.70;;;19.52;;
65572;SDS011;52214;50.940;13.996;2022-08-19T04:18:43;25.67;;;18.90;;
65572;SDS011;52214;50.940;13.996;2022-08-19T04:21:14;29.95;;;20.60;;
65572;SDS011;52214;50.940;13.996;2022-08-19T04:23:42;31.95;;;19.23;;
65572;SDS011;52214;50.940;13.996;2022-08-19T04:26:07;29.07;;;19.93;;
65572;SDS011;52214;50.940;13.996;2022-08-19T04:28:39;27.10;;;18.98;;
65572;SDS011;52214;50.940;13.996;2022-08-19T04:31:04;25.70;;;19.17;;
65572;SDS011;52214;50.940;13.996;2022-08-19T04:33:30;28.23;;;19.63;;
65572;SDS011;52214;50.940;13.996;2022-08-19T04:35:55;28.07;;;19.60;;
65572;SDS011;52214;50.940;13.996;2022-08-19T04:38:23;27.02;;;19.08;;
65572;SDS011;52214;50.940;13.996;2022-08-19T04:40:49;31.55;;;20.40;;
65572;SDS011;52214;50.940;13.996;2022-08-19T04:43:35;29.93;;;19.80;;
65572;SDS011;52214;50.940;13.996;2022-08-19T04:46:09;30.67;;;20.75;;
65572;SDS011;52214;50.940;13.996;2022-08-19T04:48:36;29.83;;;20.15;;
65572;SDS011;52214;50.940;13.996;2022-08-19T04:51:05;31.27;;;21.30;;
65572;SDS011;52214;50.940;13.996;2022-08-19T04:53:33;35.83;;;23.58;;
65572;SDS011;52214;50.940;13.996;2022-08-19T04:56:03;31.97;;;21.30;;
65572;SDS011;52214;50.940;13.996;2022-08-19T04:58:32;32.55;;;22.05;;
65572;SDS011;52214;50.940;13.996;2022-08-19T05:00:58;33.80;;;22.83;;
65572;SDS011;52214;50.940;13.996;2022-08-19T05:03:25;31.65;;;22.50;;
65572;SDS011;52214;50.940;13.996;2022-08-19T05:05:51;34.60;;;21.80;;
65572;SDS011;52214;50.940;13.996;2022-08-19T05:08:17;35.10;;;23.90;;
65572;SDS011;52214;50.940;13.996;2022-08-19T05:10:47;37.45;;;23.15;;
65572;SDS011;52214;50.940;13.996;2022-08-19T05:13:14;33.20;;;23.67;;
65572;SDS011;52214;50.940;13.996;2022-08-19T05:15:42;32.58;;;23.20;;
65572;SDS011;52214;50.940;13.996;2022-08-19T05:18:08;35.67;;;23.85;;
65572;SDS011;52214;50.940;13.996;2022-08-19T05:20:52;37.10;;;24.38;;
65572;SDS011;52214;50.940;13.996;2022-08-19T05:23:36;34.03;;;23.60;;
65572;SDS011;52214;50.940;13.996;2022-08-19T05:26:02;34.27;;;23.17;;
65572;SDS011;52214;50.940;13.996;2022-08-19T05:28:27;38.07;;;23.93;;
65572;SDS011;52214;50.940;13.996;2022-08-19T05:30:53;36.60;;;25.00;;
65572;SDS011;52214;50.940;13.996;2022-08-19T05:33:21;37.87;;;24.27;;
65572;SDS011;52214;50.940;13.996;2022-08-19T05:35:48;38.42;;;24.50;;
65572;SDS011;52214;50.940;13.996;2022-08-19T05:38:15;35.72;;;23.45;;
65572;SDS011;52214;50.940;13.996;2022-08-19T05:40:42;37.92;;;24.73;;
65572;SDS011;52214;50.940;13.996;2022-08-19T05:43:11;37.10;;;24.17;;
65572;SDS011;52214;50.940;13.996;2022-08-19T05:45:38;39.20;;;25.13;;
65572;SDS011;52214;50.940;13.996;2022-08-19T05:48:05;38.40;;;24.77;;
65572;SDS011;52214;50.940;13.996;2022-08-19T05:50:30;36.20;;;25.03;;
65572;SDS011;52214;50.940;13.996;2022-08-19T05:52:56;40.05;;;25.13;;
65572;SDS011;52214;50.940;13.996;2022-08-19T05:55:21;37.53;;;24.17;;
65572;SDS011;52214;50.940;13.996;2022-08-19T05:57:47;39.30;;;25.00;;
65572;SDS011;52214;50.940;13.996;2022-08-19T06:00:13;39.90;;;25.13;;
65572;SDS011;52214;50.940;13.996;2022-08-19T06:02:39;38.08;;;22.48;;
65572;SDS011;52214;50.940;13.996;2022-08-19T06:05:05;41.58;;;26.30;;
65572;SDS011;52214;50.940;13.996;2022-08-19T06:07:37;42.37;;;25.40;;
65572;SDS011;52214;50.940;13.996;2022-08-19T06:10:06;41.90;;;26.13;;
65572;SDS011;52214;50.940;13.996;2022-08-19T06:12:34;38.22;;;23.70;;
65572;SDS011;52214;50.940;13.996;2022-08-19T06:15:02;43.00;;;26.38;;
65572;SDS011;52214;50.940;13.996;2022-08-19T06:17:30;45.25;;;26.55;;
65572;SDS011;52214;50.940;13.996;2022-08-19T06:19:56;41.47;;;25.23;;
65572;SDS011;52214;50.940;13.996;2022-08-19T06:22:22;40.22;;;25.50;;
65572;SDS011;52214;50.940;13.996;2022-08-19T06:24:48;40.30;;;26.08;;
65572;SDS011;52214;50.940;13.996;2022-08-19T06:27:17;35.70;;;23.80;;
65572;SDS011;52214;50.940;13.996;2022-08-19T06:29:43;38.50;;;24.38;;
65572;SDS011;52214;50.940;13.996;2022-08-19T06:32:09;39.65;;;24.20;;
65572;SDS011;52214;50.940;13.996;2022-08-19T06:34:36;40.17;;;24.65;;
65572;SDS011;52214;50.940;13.996;2022-08-19T06:37:01;44.83;;;25.90;;
65572;SDS011;52214;50.940;13.996;2022-08-19T06:39:30;41.13;;;25.08;;
65572;SDS011;52214;50.940;13.996;2022-08-19T06:42:00;40.95;;;24.30;;
65572;SDS011;52214;50.940;13.996;2022-08-19T06:44:28;42.10;;;25.25;;
65572;SDS011;52214;50.940;13.996;2022-08-19T06:47:00;39.10;;;24.57;;
65572;SDS011;52214;50.940;13.996;2022-08-19T06:49:27;39.35;;;25.30;;
65572;SDS011;52214;50.940;13.996;2022-08-19T06:51:56;39.00;;;23.52;;
65572;SDS011;52214;50.940;13.996;2022-08-19T06:54:22;37.67;;;24.35;;
65572;SDS011;52214;50.940;13.996;2022-08-19T06:56:48;34.73;;;22.93;;
65572;SDS011;52214;50.940;13.996;2022-08-19T06:59:14;36.07;;;22.87;;
65572;SDS011;52214;50.940;13.996;2022-08-19T07:01:43;38.08;;;23.25;;
65572;SDS011;52214;50.940;13.996;2022-08-19T07:04:12;37.00;;;22.90;;
65572;SDS011;52214;50.940;13.996;2022-08-19T07:06:40;36.20;;;21.75;;
65572;SDS011;52214;50.940;13.996;2022-08-19T07:09:07;32.07;;;21.17;;
65572;SDS011;52214;50.940;13.996;2022-08-19T07:11:34;31.83;;;20.83;;
65572;SDS011;52214;50.940;13.996;2022-08-19T07:14:00;34.85;;;23.00;;
65572;SDS011;52214;50.940;13.996;2022-08-19T07:16:26;33.50;;;21.63;;
65572;SDS011;52214;50.940;13.996;2022-08-19T07:18:53;30.45;;;20.67;;
65572;SDS011;52214;50.940;13.996;2022-08-19T07:21:21;31.87;;;19.57;;
65572;SDS011;52214;50.940;13.996;2022-08-19T07:23:49;30.98;;;20.08;;
65572;SDS011;52214;50.940;13.996;2022-08-19T07:26:18;31.25;;;19.98;;
65572;SDS011;52214;50.940;13.996;2022-08-19T07:28:46;28.55;;;18.48;;
65572;SDS011;52214;50.940;13.996;2022-08-19T07:31:14;29.98;;;20.42;;
65572;SDS011;52214;50.940;13.996;2022-08-19T07:33:45;29.13;;;19.30;;
65572;SDS011;52214;50.940;13.996;2022-08-19T07:36:12;32.67;;;19.80;;
65572;SDS011;52214;50.940;13.996;2022-08-19T07:38:43;28.13;;;19.25;;
65572;SDS011;52214;50.940;13.996;2022-08-19T07:41:13;30.25;;;19.48;;
65572;SDS011;52214;50.940;13.996;2022-08-19T07:43:40;26.90;;;18.75;;
65572;SDS011;52214;50.940;13.996;2022-08-19T07:46:06;27.47;;;18.67;;
65572;SDS011;52214;50.940;13.996;2022-08-19T07:48:32;23.85;;;16.95;;
65572;SDS011;52214;50.940;13.996;2022-08-19T07:50:59;23.95;;;17.10;;
65572;SDS011;52214;50.940;13.996;2022-08-19T07:53:28;25.90;;;17.60;;
65572;SDS011;52214;50.940;13.996;2022-08-19T07:55:55;24.25;;;17.13;;
65572;SDS011;52214;50.940;13.996;2022-08-19T07:58:25;26.38;;;17.30;;
65572;SDS011;52214;50.940;13.996;2022-08-19T08:00:50;23.87;;;16.30;;
65572;SDS011;52214;50.940;13.996;2022-08-19T08:03:17;23.75;;;16.38;;
65572;SDS011;52214;50.940;13.996;2022-08-19T08:05:45;24.80;;;17.40;;
65572;SDS011;52214;50.940;13.996;2022-08-19T08:08:29;25.05;;;16.33;;
65572;SDS011;52214;50.940;13.996;2022-08-19T08:11:05;22.47;;;15.83;;
65572;SDS011;52214;50.940;13.996;2022-08-19T08:13:31;24.83;;;17.48;;
65572;SDS011;52214;50.940;13.996;2022-08-19T08:16:00;23.52;;;17.02;;
65572;SDS011;52214;50.940;13.996;2022-08-19T08:18:27;23.25;;;16.95;;
65572;SDS011;52214;50.940;13.996;2022-08-19T08:20:54;25.60;;;17.40;;
65572;SDS011;52214;50.940;13.996;2022-08-19T08:23:20;25.35;;;16.05;;
65572;SDS011;52214;50.940;13.996;2022-08-19T08:25:54;24.50;;;16.20;;
65572;SDS011;52214;50.940;13.996;2022-08-19T08:28:22;24.15;;;16.23;;
65572;SDS011;52214;50.940;13.996;2022-08-19T08:30:48;25.13;;;16.60;;
65572;SDS011;52214;50.940;13.996;2022-08-19T08:33:19;24.02;;;16.73;;
65572;SDS011;52214;50.940;13.996;2022-08-19T08:35:46;21.45;;;14.98;;
65572;SDS011;52214;50.940;13.996;2022-08-19T08:38:12;24.42;;;16.25;;
65572;SDS011;52214;50.940;13.996;2022-08-19T08:40:44;24.27;;;15.55;;
65572;SDS011;52214;50.940;13.996;2022-08-19T08:43:28;24.03;;;15.57;;
65572;SDS011;52214;50.940;13.996;2022-08-19T08:46:04;21.38;;;15.45;;
65572;SDS011;52214;50.940;13.996;2022-08-19T08:48:34;22.98;;;15.90;;
65572;SDS011;52214;50.940;13.996;2022-08-19T08:51:16;22.02;;;15.20;;
65572;SDS011;52214;50.940;13.996;2022-08-19T08:53:46;22.30;;;15.27;;
65572;SDS011;52214;50.940;13.996;2022-08-19T08:56:15;19.97;;;13.43;;
65572;SDS011;52214;50.940;13.996;2022-08-19T08:59:04;21.63;;;14.68;;
65572;SDS011;52214;50.940;13.996;2022-08-19T09:01:32;24.17;;;16.15;;
65572;SDS011;52214;50.940;13.996;2022-08-19T09:03:58;22.17;;;15.83;;
65572;SDS011;52214;50.940;13.996;2022-08-19T09:11:48;21.48;;;15.65;;
65572;SDS011;52214;50.940;13.996;2022-08-19T09:17:12;22.42;;;15.52;;
65572;SDS011;52214;50.940;13.996;2022-08-19T09:19:52;21.67;;;14.80;;
65572;SDS011;52214;50.940;13.996;2022-08-19T09:22:19;20.45;;;14.45;;
65572;SDS011;52214;50.940;13.996;2022-08-19T09:24:50;23.23;;;14.85;;
65572;SDS011;52214;50.940;13.996;2022-08-19T09:27:20;22.30;;;15.00;;
65572;SDS011;52214;50.940;13.996;2022-08-19T09:29:46;26.33;;;15.40;;
65572;SDS011;52214;50.940;13.996;2022-08-19T09:32:14;23.83;;;15.98;;
65572;SDS011;52214;50.940;13.996;2022-08-19T09:34:40;21.20;;;14.65;;
65572;SDS011;52214;50.940;13.996;2022-08-19T09:37:06;20.08;;;14.73;;
65572;SDS011;52214;50.940;13.996;2022-08-19T09:39:32;21.17;;;14.60;;
65572;SDS011;52214;50.940;13.996;2022-08-19T09:41:57;21.27;;;15.13;;
65572;SDS011;52214;50.940;13.996;2022-08-19T09:44:23;22.00;;;15.30;;
65572;SDS011;52214;50.940;13.996;2022-08-19T09:46:48;19.95;;;14.10;;
65572;SDS011;52214;50.940;13.996;2022-08-19T09:49:15;21.70;;;15.13;;
65572;SDS011;52214;50.940;13.996;2022-08-19T09:51:42;22.40;;;15.25;;
65572;SDS011;52214;50.940;13.996;2022-08-19T09:54:08;19.25;;;13.38;;
65572;SDS011;52214;50.940;13.996;2022-08-19T09:56:33;17.63;;;13.10;;
65572;SDS011;52214;50.940;13.996;2022-08-19T09:58:59;16.60;;;12.50;;
65572;SDS011;52214;50.940;13.996;2022-08-19T10:01:28;18.15;;;12.20;;
65572;SDS011;52214;50.940;13.996;2022-08-19T10:03:56;16.70;;;11.73;;
65572;SDS011;52214;50.940;13.996;2022-08-19T10:06:24;16.48;;;12.30;;
65572;SDS011;52214;50.940;13.996;2022-08-19T10:08:51;16.15;;;11.25;;
65572;SDS011;52214;50.940;13.996;2022-08-19T10:11:17;16.63;;;11.17;;
65572;SDS011;52214;50.940;13.996;2022-08-19T10:13:44;13.52;;;10.75;;
65572;SDS011;52214;50.940;13.996;2022-08-19T10:16:11;15.15;;;11.15;;
65572;SDS011;52214;50.940;13.996;2022-08-19T10:18:43;15.20;;;10.65;;
65572;SDS011;52214;50.940;13.996;2022-08-19T10:21:16;14.87;;;10.90;;
65572;SDS011;52214;50.940;13.996;2022-08-19T10:23:46;13.15;;;10.45;;
65572;SDS011;52214;50.940;13.996;2022-08-19T10:26:15;19.15;;;11.10;;
65572;SDS011;52214;50.940;13.996;2022-08-19T10:28:44;15.87;;;10.47;;
65572;SDS011;52214;50.940;13.996;2022-08-19T10:31:11;13.13;;;10.05;;
65572;SDS011;52214;50.940;13.996;2022-08-19T10:33:39;14.95;;;10.13;;
65572;SDS011;52214;50.940;13.996;2022-08-19T10:36:13;14.23;;;11.00;;
65572;SDS011;52214;50.940;13.996;2022-08-19T10:38:40;14.52;;;9.82;;
65572;SDS011;52214;50.940;13.996;2022-08-19T10:41:10;13.10;;;10.10;;
65572;SDS011;52214;50.940;13.996;2022-08-19T10:43:38;13.82;;;10.23;;
65572;SDS011;52214;50.940;13.996;2022-08-19T10:46:12;16.58;;;11.18;;
65572;SDS011;52214;50.940;13.996;2022-08-19T10:48:40;15.33;;;11.73;;
65572;SDS011;52214;50.940;13.996;2022-08-19T10:51:07;15.45;;;10.60;;
65572;SDS011;52214;50.940;13.996;2022-08-19T10:53:52;14.27;;;10.95;;
65572;SDS011;52214;50.940;13.996;2022-08-19T10:56:18;13.97;;;10.60;;
65572;SDS011;52214;50.940;13.996;2022-08-19T10:59:02;15.23;;;10.95;;
65572;SDS011;52214;50.940;13.996;2022-08-19T11:01:29;14.52;;;11.85;;
65572;SDS011;52214;50.940;13.996;2022-08-19T11:03:58;16.23;;;12.13;;
65572;SDS011;52214;50.940;13.996;2022-08-19T11:06:25;15.32;;;10.95;;
65572;SDS011;52214;50.940;13.996;2022-08-19T11:08:51;17.60;;;12.33;;
65572;SDS011;52214;50.940;13.996;2022-08-19T11:11:17;17.20;;;12.82;;
65572;SDS011;52214;50.940;13.996;2022-08-19T11:13:43;19.00;;;12.83;;
65572;SDS011;52214;50.940;13.996;2022-08-19T11:16:15;19.58;;;13.15;;
65572;SDS011;52214;50.940;13.996;2022-08-19T11:18:43;17.48;;;12.43;;
65572;SDS011;52214;50.940;13.996;2022-08-19T11:21:33;16.58;;;12.52;;
65572;SDS011;52214;50.940;13.996;2022-08-19T11:24:02;16.70;;;12.05;;
65572;SDS011;52214;50.940;13.996;2022-08-19T11:26:31;16.37;;;12.50;;
65572;SDS011;52214;50.940;13.996;2022-08-19T11:28:58;16.70;;;12.35;;
65572;SDS011;52214;50.940;13.996;2022-08-19T11:31:26;15.27;;;12.00;;
65572;SDS011;52214;50.940;13.996;2022-08-19T11:33:55;17.38;;;12.48;;
65572;SDS011;52214;50.940;13.996;2022-08-19T11:36:22;14.93;;;12.23;;
65572;SDS011;52214;50.940;13.996;2022-08-19T11:38:47;18.63;;;13.57;;
65572;SDS011;52214;50.940;13.996;2022-08-19T11:41:15;16.63;;;12.15;;
65572;SDS011;52214;50.940;13.996;2022-08-19T11:43:42;17.33;;;12.60;;
65572;SDS011;52214;50.940;13.996;2022-08-19T11:46:09;15.50;;;12.33;;
65572;SDS011;52214;50.940;13.996;2022-08-19T11:48:37;15.93;;;12.65;;
65572;SDS011;52214;50.940;13.996;2022-08-19T11:51:05;17.60;;;12.70;;
65572;SDS011;52214;50.940;13.996;2022-08-19T11:53:34;16.60;;;11.82;;
65572;SDS011;52214;50.940;13.996;2022-08-19T11:56:01;17.83;;;13.27;;
65572;SDS011;52214;50.940;13.996;2022-08-19T11:58:26;17.20;;;12.27;;
65572;SDS011;52214;50.940;13.996;2022-08-19T12:00:52;15.03;;;11.80;;
65572;SDS011;52214;50.940;13.996;2022-08-19T12:03:18;16.30;;;12.17;;
65572;SDS011;52214;50.940;13.996;2022-08-19T12:05:44;15.07;;;11.70;;
65572;SDS011;52214;50.940;13.996;2022-08-19T12:08:11;13.77;;;10.45;;
65572;SDS011;52214;50.940;13.996;2022-08-19T12:10:38;12.50;;;9.43;;
65572;SDS011;52214;50.940;13.996;2022-08-19T12:13:04;12.70;;;10.30;;
65572;SDS011;52214;50.940;13.996;2022-08-19T12:15:35;11.95;;;9.60;;
65572;SDS011;52214;50.940;13.996;2022-08-19T12:18:01;12.97;;;9.83;;
65572;SDS011;52214;50.940;13.996;2022-08-19T12:20:27;13.45;;;8.63;;
65572;SDS011;52214;50.940;13.996;2022-08-19T12:22:53;11.20;;;8.77;;
65572;SDS011;52214;50.940;13.996;2022-08-19T12:25:18;11.53;;;8.87;;
65572;SDS011;52214;50.940;13.996;2022-08-19T12:27:44;10.45;;;8.50;;
65572;SDS011;52214;50.940;13.996;2022-08-19T12:30:10;12.25;;;9.55;;
65572;SDS011;52214;50.940;13.996;2022-08-19T12:32:38;10.43;;;7.70;;
65572;SDS011;52214;50.940;13.996;2022-08-19T12:35:04;11.13;;;8.40;;
65572;SDS011;52214;50.940;13.996;2022-08-19T12:37:31;11.55;;;9.20;;
65572;SDS011;52214;50.940;13.996;2022-08-19T12:39:57;12.60;;;9.63;;
65572;SDS011;52214;50.940;13.996;2022-08-19T12:42:23;12.87;;;9.27;;
65572;SDS011;52214;50.940;13.996;2022-08-19T12:44:48;12.57;;;9.13;;
65572;SDS011;52214;50.940;13.996;2022-08-19T12:47:14;11.83;;;9.50;;
65572;SDS011;52214;50.940;13.996;2022-08-19T12:49:40;12.57;;;8.85;;
65572;SDS011;52214;50.940;13.996;2022-08-19T12:52:06;10.70;;;8.37;;
65572;SDS011;52214;50.940;13.996;2022-08-19T12:54:35;10.02;;;7.85;;
65572;SDS011;52214;50.940;13.996;2022-08-19T12:57:05;9.50;;;7.40;;
65572;SDS011;52214;50.940;13.996;2022-08-19T12:59:33;10.05;;;7.45;;
65572;SDS011;52214;50.940;13.996;2022-08-19T13:02:02;10.87;;;7.47;;
65572;SDS011;52214;50.940;13.996;2022-08-19T13:04:32;10.35;;;7.28;;
65572;SDS011;52214;50.940;13.996;2022-08-19T13:07:02;8.85;;;7.18;;
65572;SDS011;52214;50.940;13.996;2022-08-19T13:09:28;10.63;;;8.13;;
65572;SDS011;52214;50.940;13.996;2022-08-19T13:11:53;11.33;;;8.80;;
65572;SDS011;52214;50.940;13.996;2022-08-19T13:14:19;15.60;;;9.95;;
65572;SDS011;52214;50.940;13.996;2022-08-19T13:16:45;13.30;;;10.33;;
65572;SDS011;52214;50.940;13.996;2022-08-19T13:19:11;15.40;;;9.95;;
65572;SDS011;52214;50.940;13.996;2022-08-19T13:21:38;13.80;;;10.13;;
65572;SDS011;52214;50.940;13.996;2022-08-19T13:24:03;12.50;;;10.00;;
65572;SDS011;52214;50.940;13.996;2022-08-19T13:26:29;14.13;;;11.10;;
65572;SDS011;52214;50.940;13.996;2022-08-19T13:28:54;16.23;;;12.10;;
65572;SDS011;52214;50.940;13.996;2022-08-19T13:31:39;15.43;;;11.02;;
65572;SDS011;52214;50.940;13.996;2022-08-19T13:34:31;15.87;;;12.03;;
65572;SDS011;52214;50.940;13.996;2022-08-19T13:36:59;17.15;;;13.27;;
65572;SDS011;52214;50.940;13.996;2022-08-19T13:39:28;19.33;;;13.60;;
65572;SDS011;52214;50.940;13.996;2022-08-19T13:41:54;17.42;;;12.85;;
65572;SDS011;52214;50.940;13.996;2022-08-19T13:44:20;18.07;;;14.40;;
65572;SDS011;52214;50.940;13.996;2022-08-19T13:46:46;20.33;;;15.45;;
65572;SDS011;52214;50.940;13.996;2022-08-19T13:49:14;20.58;;;14.85;;
65572;SDS011;52214;50.940;13.996;2022-08-19T13:51:40;19.03;;;14.20;;
65572;SDS011;52214;50.940;13.996;2022-08-19T13:54:07;18.45;;;13.48;;
65572;SDS011;52214;50.940;13.996;2022-08-19T13:56:34;21.23;;;15.55;;
65572;SDS011;52214;50.940;13.996;2022-08-19T13:59:05;20.75;;;14.80;;
65572;SDS011;52214;50.940;13.996;2022-08-19T14:01:30;21.43;;;15.17;;
65572;SDS011;52214;50.940;13.996;2022-08-19T14:03:56;18.97;;;13.53;;
65572;SDS011;52214;50.940;13.996;2022-08-19T14:06:21;22.27;;;14.90;;
65572;SDS011;52214;50.940;13.996;2022-08-19T14:08:47;20.63;;;14.47;;
65572;SDS011;52214;50.940;13.996;2022-08-19T14:11:13;18.93;;;13.80;;
65572;SDS011;52214;50.940;13.996;2022-08-19T14:13:39;20.13;;;13.20;;
65572;SDS011;52214;50.940;13.996;2022-08-19T14:16:06;16.60;;;11.17;;
65572;SDS011;52214;50.940;13.996;2022-08-19T14:18:36;17.65;;;12.43;;
65572;SDS011;52214;50.940;13.996;2022-08-19T14:21:02;15.80;;;11.90;;
65572;SDS011;52214;50.940;13.996;2022-08-19T14:23:30;18.17;;;13.30;;
65572;SDS011;52214;50.940;13.996;2022-08-19T14:26:06;17.77;;;11.87;;
65572;SDS011;52214;50.940;13.996;2022-08-19T14:28:34;19.15;;;13.98;;